createdAt,value
2023-03-01T00:00:35.898Z,415.00
2023-03-01T00:04:35.961Z,416.00
2023-03-01T00:08:35.957Z,416.00
2023-03-01T00:12:35.976Z,414.00
2023-03-01T00:16:36.049Z,413.00
2023-03-01T00:20:36.032Z,412.00
2023-03-01T00:24:35.991Z,415.00
2023-03-01T00:28:36.019Z,416.00
2023-03-01T00:32:36.042Z,417.00
2023-03-01T00:36:36.081Z,417.00
2023-03-01T00:40:36.143Z,420.00
2023-03-01T00:44:36.141Z,417.00
2023-03-01T00:48:36.162Z,414.00
2023-03-01T00:52:36.158Z,415.00
2023-03-01T00:56:36.152Z,412.00
2023-03-01T01:00:36.270Z,413.00
2023-03-01T01:04:36.200Z,414.00
2023-03-01T01:08:36.271Z,411.00
2023-03-01T01:12:36.341Z,417.00
2023-03-01T01:16:36.327Z,419.00
2023-03-01T01:20:36.312Z,420.00
2023-03-01T01:24:36.360Z,418.00
2023-03-01T01:28:36.413Z,414.00
2023-03-01T01:32:36.432Z,416.00
2023-03-01T01:36:36.472Z,417.00
2023-03-01T01:40:36.489Z,413.00
2023-03-01T01:44:36.548Z,414.00
2023-03-01T01:48:36.574Z,414.00
2023-03-01T01:52:36.615Z,414.00
2023-03-01T01:56:36.626Z,411.00
2023-03-01T02:00:36.725Z,409.00
2023-03-01T02:04:36.799Z,412.00
2023-03-01T02:08:36.793Z,414.00
2023-03-01T02:12:36.969Z,410.00
2023-03-01T02:16:37.082Z,407.00
2023-03-01T02:20:37.106Z,405.00
2023-03-01T02:24:37.191Z,405.00
2023-03-01T02:28:37.273Z,404.00
2023-03-01T02:32:37.346Z,408.00
2023-03-01T02:36:37.443Z,409.00
2023-03-01T02:40:37.625Z,412.00
2023-03-01T02:44:37.744Z,408.00
2023-03-01T02:48:37.892Z,415.00
2023-03-01T02:52:38.159Z,416.00
2023-03-01T02:56:38.150Z,415.00
2023-03-01T03:00:38.295Z,416.00
2023-03-01T03:04:38.426Z,422.00
2023-03-01T03:08:38.658Z,423.00
2023-03-01T03:12:38.688Z,421.00
2023-03-01T03:16:38.921Z,417.00
2023-03-01T03:20:38.974Z,417.00
2023-03-01T03:24:39.329Z,419.00
2023-03-01T03:28:39.271Z,417.00
2023-03-01T03:32:39.396Z,417.00
2023-03-01T03:36:39.529Z,420.00
2023-03-01T03:40:39.662Z,420.00
2023-03-01T03:44:39.783Z,415.00
2023-03-01T03:48:39.924Z,419.00
2023-03-01T03:52:40.044Z,418.00
2023-03-01T03:56:40.988Z,419.00
2023-03-01T04:00:40.287Z,420.00
2023-03-01T04:04:40.431Z,423.00
2023-03-01T04:08:40.539Z,423.00
2023-03-01T04:12:40.690Z,417.00
2023-03-01T04:16:40.858Z,420.00
2023-03-01T04:20:41.005Z,420.00
2023-03-01T04:24:41.135Z,422.00
2023-03-01T04:28:41.338Z,422.00
2023-03-01T04:32:41.444Z,421.00
2023-03-01T04:36:41.648Z,417.00
2023-03-01T04:40:41.745Z,414.00
2023-03-01T04:44:41.948Z,411.00
2023-03-01T04:48:42.095Z,413.00
2023-03-01T04:52:42.302Z,412.00
2023-03-01T04:56:42.420Z,413.00
2023-03-01T05:00:42.602Z,412.00
2023-03-01T05:04:42.765Z,416.00
2023-03-01T05:08:42.910Z,420.00
2023-03-01T05:12:43.079Z,425.00
2023-03-01T05:16:43.278Z,431.00
2023-03-01T05:20:43.413Z,428.00
2023-03-01T05:24:43.588Z,428.00
2023-03-01T05:28:43.664Z,434.00
2023-03-01T05:32:43.847Z,436.00
2023-03-01T05:36:43.988Z,431.00
2023-03-01T05:40:44.106Z,431.00
2023-03-01T05:44:44.299Z,430.00
2023-03-01T05:48:44.433Z,432.00
2023-03-01T05:52:44.562Z,429.00
2023-03-01T05:56:44.781Z,425.00
2023-03-01T06:00:44.938Z,425.00
2023-03-01T06:04:45.179Z,425.00
2023-03-01T06:08:45.280Z,420.00
2023-03-01T06:12:45.408Z,420.00
2023-03-01T06:16:45.528Z,421.00
2023-03-01T06:20:45.665Z,422.00
2023-03-01T06:24:45.788Z,420.00
2023-03-01T06:28:45.965Z,420.00
2023-03-01T06:32:46.104Z,420.00
2023-03-01T06:36:46.449Z,421.00
2023-03-01T06:40:46.448Z,419.00
2023-03-01T06:44:46.266Z,421.00
2023-03-01T06:48:46.379Z,420.00
2023-03-01T06:56:56.955Z,494.00
2023-03-01T07:00:56.932Z,525.00
2023-03-01T07:04:56.844Z,569.00
2023-03-01T07:08:56.818Z,617.00
2023-03-01T07:12:56.790Z,643.00
2023-03-01T07:16:56.745Z,652.00
2023-03-01T07:20:56.713Z,673.00
2023-03-01T07:24:56.726Z,694.00
2023-03-01T07:28:56.674Z,713.00
2023-03-01T07:32:56.761Z,720.00
2023-03-01T07:40:30.147Z,746.00
2023-03-01T07:44:30.313Z,717.00
2023-03-01T07:48:30.009Z,712.00
2023-03-01T07:52:30.355Z,734.00
2023-03-01T07:56:30.332Z,765.00
2023-03-01T08:00:29.884Z,779.00
2023-03-01T08:04:29.894Z,781.00
2023-03-01T08:08:29.812Z,786.00
2023-03-01T08:12:29.760Z,795.00
2023-03-01T08:16:30.162Z,806.00
2023-03-01T08:20:29.823Z,804.00
2023-03-01T08:24:29.813Z,815.00
2023-03-01T08:28:29.749Z,826.00
2023-03-01T08:32:29.847Z,838.00
2023-03-01T08:36:30.204Z,819.00
2023-03-01T08:40:29.661Z,771.00
2023-03-01T08:44:29.857Z,738.00
2023-03-01T08:48:29.593Z,704.00
2023-03-01T08:52:29.827Z,682.00
2023-03-01T08:56:29.802Z,652.00
2023-03-01T09:00:29.870Z,638.00
2023-03-01T09:04:29.422Z,620.00
2023-03-01T09:08:29.732Z,596.00
2023-03-01T09:12:30.405Z,584.00
2023-03-01T09:16:30.520Z,580.00
2023-03-01T09:20:30.230Z,576.00
2023-03-01T09:24:30.364Z,576.00
2023-03-01T09:28:30.555Z,579.00
2023-03-01T09:32:30.675Z,578.00
2023-03-01T09:36:31.233Z,577.00
2023-03-01T09:40:31.359Z,577.00
2023-03-01T09:44:31.363Z,575.00
2023-03-01T09:48:31.205Z,579.00
2023-03-01T09:52:31.162Z,575.00
2023-03-01T09:56:31.615Z,568.00
2023-03-01T10:00:31.328Z,568.00
2023-03-01T10:04:31.386Z,565.00
2023-03-01T10:08:31.487Z,562.00
2023-03-01T10:12:31.482Z,556.00
2023-03-01T10:16:31.543Z,554.00
2023-03-01T10:20:31.559Z,551.00
2023-03-01T10:24:31.667Z,551.00
2023-03-01T10:28:31.707Z,547.00
2023-03-01T10:32:31.764Z,546.00
2023-03-01T10:36:32.092Z,544.00
2023-03-01T10:40:31.769Z,538.00
2023-03-01T10:44:31.762Z,540.00
2023-03-01T10:48:31.774Z,544.00
2023-03-01T10:52:31.864Z,536.00
2023-03-01T10:56:31.841Z,532.00
2023-03-01T11:00:31.809Z,533.00
2023-03-01T11:04:31.815Z,532.00
2023-03-01T11:08:34.720Z,538.00
2023-03-01T11:12:31.726Z,539.00
2023-03-01T11:16:32.017Z,538.00
2023-03-01T11:20:31.653Z,525.00
2023-03-01T11:24:31.593Z,515.00
2023-03-01T11:28:31.599Z,505.00
2023-03-01T11:32:31.695Z,499.00
2023-03-01T11:36:31.509Z,494.00
2023-03-01T11:40:31.450Z,492.00
2023-03-01T11:44:32.306Z,478.00
2023-03-01T11:48:47.127Z,474.00
2023-03-01T11:52:32.357Z,470.00
2023-03-01T11:56:31.311Z,469.00
2023-03-01T12:00:31.289Z,464.00
2023-03-01T12:04:31.273Z,468.00
2023-03-01T12:08:31.241Z,480.00
2023-03-01T12:12:31.193Z,482.00
2023-03-01T12:16:39.093Z,476.00
2023-03-01T12:20:32.205Z,480.00
2023-03-01T12:24:31.119Z,483.00
2023-03-01T12:28:31.115Z,483.00
2023-03-01T12:32:32.865Z,486.00
2023-03-01T12:36:31.664Z,495.00
2023-03-01T12:40:31.139Z,496.00
2023-03-01T12:44:31.119Z,500.00
2023-03-01T12:48:31.118Z,508.00
2023-03-01T12:52:31.069Z,506.00
2023-03-01T12:56:31.336Z,511.00
2023-03-01T13:00:30.966Z,514.00
2023-03-01T13:04:31.057Z,517.00
2023-03-01T13:08:31.273Z,516.00
2023-03-01T13:12:31.275Z,518.00
2023-03-01T13:16:31.641Z,510.00
2023-03-01T13:20:31.228Z,513.00
2023-03-01T13:24:31.119Z,510.00
2023-03-01T13:28:31.109Z,509.00
2023-03-01T13:32:42.999Z,511.00
2023-03-01T13:36:32.337Z,507.00
2023-03-01T13:40:30.991Z,504.00
2023-03-01T13:44:30.981Z,501.00
2023-03-01T13:48:31.028Z,499.00
2023-03-01T13:52:31.145Z,497.00
2023-03-01T13:56:31.471Z,500.00
2023-03-01T14:00:31.337Z,500.00
2023-03-01T14:04:31.336Z,493.00
2023-03-01T14:08:31.419Z,495.00
2023-03-01T14:12:31.372Z,495.00
2023-03-01T14:16:31.683Z,499.00
2023-03-01T14:20:31.373Z,498.00
2023-03-01T14:24:31.454Z,495.00
2023-03-01T14:28:31.383Z,496.00
2023-03-01T14:32:31.490Z,494.00
2023-03-01T14:36:31.794Z,491.00
2023-03-01T14:40:31.432Z,492.00
2023-03-01T14:44:31.431Z,489.00
2023-03-01T14:48:32.018Z,488.00
2023-03-01T14:52:31.968Z,483.00
2023-03-01T14:56:31.966Z,489.00
2023-03-01T15:00:31.586Z,491.00
2023-03-01T15:04:31.640Z,489.00
2023-03-01T15:08:31.637Z,487.00
2023-03-01T15:12:31.768Z,485.00
2023-03-01T15:16:32.062Z,484.00
2023-03-01T15:20:31.707Z,484.00
2023-03-01T15:24:31.797Z,483.00
2023-03-01T15:28:31.881Z,479.00
2023-03-01T15:32:31.969Z,481.00
2023-03-01T15:36:32.267Z,485.00
2023-03-01T15:40:32.092Z,482.00
2023-03-01T15:44:41.523Z,479.00
2023-03-01T15:48:33.123Z,479.00
2023-03-01T15:52:32.090Z,482.00
2023-03-01T15:56:32.401Z,483.00
2023-03-01T16:00:32.078Z,488.00
2023-03-01T16:04:32.219Z,483.00
2023-03-01T16:08:32.402Z,479.00
2023-03-01T16:12:32.535Z,474.00
2023-03-01T16:16:33.120Z,481.00
2023-03-01T16:20:33.952Z,480.00
2023-03-01T16:24:32.910Z,479.00
2023-03-01T16:28:32.881Z,470.00
2023-03-01T16:32:32.872Z,467.00
2023-03-01T16:36:32.822Z,471.00
2023-03-01T16:40:32.764Z,472.00
2023-03-01T16:44:32.745Z,469.00
2023-03-01T16:48:32.683Z,473.00
2023-03-01T16:52:32.647Z,467.00
2023-03-01T16:56:33.050Z,469.00
2023-03-01T17:00:32.598Z,469.00
2023-03-01T17:04:32.824Z,469.00
2023-03-01T17:08:32.736Z,467.00
2023-03-01T17:12:32.700Z,463.00
2023-03-01T17:16:32.709Z,459.00
2023-03-01T17:20:32.661Z,455.00
2023-03-01T17:24:32.579Z,458.00
2023-03-01T17:28:32.584Z,464.00
2023-03-01T17:32:32.637Z,459.00
2023-03-01T17:36:32.527Z,463.00
2023-03-01T17:40:32.457Z,460.00
2023-03-01T17:44:32.380Z,464.00
2023-03-01T17:48:32.343Z,464.00
2023-03-01T17:52:32.343Z,460.00
2023-03-01T17:56:32.377Z,457.00
2023-03-01T18:00:32.498Z,455.00
2023-03-01T18:04:32.642Z,455.00
2023-03-01T18:08:32.675Z,455.00
2023-03-01T18:12:32.770Z,453.00
2023-03-01T18:16:33.087Z,451.00
2023-03-01T18:20:32.703Z,449.00
2023-03-01T18:24:32.717Z,455.00
2023-03-01T18:28:32.730Z,448.00
2023-03-01T18:32:32.862Z,452.00
2023-03-01T18:36:33.106Z,454.00
2023-03-01T18:40:32.828Z,456.00
2023-03-01T18:44:32.816Z,450.00
2023-03-01T18:48:32.855Z,450.00
2023-03-01T18:52:32.903Z,452.00
2023-03-01T18:56:33.346Z,450.00
2023-03-01T19:00:33.025Z,452.00
2023-03-01T19:04:33.059Z,450.00
2023-03-01T19:08:33.083Z,452.00
2023-03-01T19:12:35.131Z,452.00
2023-03-01T19:16:33.636Z,451.00
2023-03-01T19:20:33.293Z,457.00
2023-03-01T19:24:33.382Z,455.00
2023-03-01T19:28:33.471Z,453.00
2023-03-01T19:32:33.598Z,452.00
2023-03-01T19:36:33.959Z,449.00
2023-03-01T19:40:33.784Z,450.00
2023-03-01T19:44:33.842Z,456.00
2023-03-01T19:48:33.966Z,454.00
2023-03-01T19:52:34.028Z,451.00
2023-03-01T19:56:34.855Z,450.00
2023-03-01T20:00:35.081Z,447.00
2023-03-01T20:04:34.384Z,444.00
2023-03-01T20:08:34.483Z,445.00
2023-03-01T20:12:34.613Z,446.00
2023-03-01T20:16:35.274Z,448.00
2023-03-01T20:20:34.872Z,454.00
2023-03-01T20:24:35.032Z,451.00
2023-03-01T20:28:35.161Z,456.00
2023-03-01T20:32:35.398Z,450.00
2023-03-01T20:36:35.851Z,446.00
2023-03-01T20:40:35.633Z,451.00
2023-03-01T20:44:35.742Z,449.00
2023-03-01T20:48:35.919Z,452.00
2023-03-01T20:52:46.868Z,456.00
2023-03-01T20:56:37.021Z,451.00
2023-03-01T21:00:35.998Z,452.00
2023-03-01T21:04:36.073Z,454.00
2023-03-01T21:08:36.230Z,451.00
2023-03-01T21:12:36.361Z,449.00
2023-03-01T21:16:36.844Z,452.00
2023-03-01T21:20:36.613Z,452.00
2023-03-01T21:24:36.779Z,451.00
2023-03-01T21:28:36.947Z,449.00
2023-03-01T21:32:37.135Z,447.00
2023-03-01T21:36:37.257Z,445.00
2023-03-01T21:40:37.654Z,443.00
2023-03-01T21:44:37.638Z,445.00
2023-03-01T21:48:39.892Z,444.00
2023-03-01T21:52:37.757Z,439.00
2023-03-01T21:56:37.678Z,442.00
2023-03-01T22:00:37.685Z,444.00
2023-03-01T22:04:37.634Z,442.00
2023-03-01T22:08:37.580Z,438.00
2023-03-01T22:12:37.549Z,440.00
2023-03-01T22:16:37.573Z,447.00
2023-03-01T22:20:37.463Z,445.00
2023-03-01T22:24:37.440Z,445.00
2023-03-01T22:28:37.460Z,450.00
2023-03-01T22:32:37.687Z,446.00
2023-03-01T22:36:37.884Z,448.00
2023-03-01T22:40:39.192Z,440.00
2023-03-01T22:44:38.280Z,444.00
2023-03-01T22:48:38.692Z,443.00
2023-03-01T22:52:38.479Z,444.00
2023-03-01T22:56:38.407Z,440.00
2023-03-01T23:00:38.394Z,440.00
2023-03-01T23:04:38.354Z,437.00
2023-03-01T23:08:38.295Z,437.00
2023-03-01T23:12:38.280Z,437.00
2023-03-01T23:16:38.313Z,437.00
2023-03-01T23:20:38.230Z,438.00
2023-03-01T23:24:38.241Z,439.00
2023-03-01T23:28:38.206Z,437.00
2023-03-01T23:32:38.092Z,440.00
2023-03-01T23:36:38.122Z,438.00
2023-03-01T23:40:38.009Z,436.00
2023-03-01T23:44:38.071Z,432.00
2023-03-01T23:48:37.963Z,429.00
2023-03-01T23:52:37.885Z,423.00
2023-03-01T23:56:37.854Z,428.00
